Mc Grath, Alaska
Current Conditions -  °F | °C
As of 1:53 PM on Saturday 25 Oct 2014 (Local Time) from PAMC Reporting Station
Overcast Overcast  
Wind Chill: 17°   Ceiling: 300
Heat Index: 23°   Visibility: 7mi
Dew Point: 21°   Wind: 5mph
Humidity: 92%   Direction: 120°ESE
Pressure: 29.9"   Gusts: NA
Location:  63.1005°N, 155.153°W
Report Text: PAMC 252153Z 12004KT 7SM OVC003 M05/M06 A2990 RMK SLP132 I1000 T10501061 VIA AUTODIAL
Loading
Personal Weather Stations






























Interactive Weather Map
Tropical Storm Tracking
New forecast layout! Learn more

10-Day Weather Forecast

Advertisements
Track Severe Weather on mobile